sensor_id;sensor_type;location;lat;lon;timestamp;P1;durP1;ratioP1;P2;durP2;ratioP2
31808;SDS011;18379;48.208;-1.518;2023-02-26T00:03:26;39.20;;;36.10;;
31808;SDS011;18379;48.208;-1.518;2023-02-26T00:08:27;45.73;;;42.10;;
31808;SDS011;18379;48.208;-1.518;2023-02-26T00:13:28;39.03;;;36.13;;
31808;SDS011;18379;48.208;-1.518;2023-02-26T00:18:29;38.07;;;35.47;;
31808;SDS011;18379;48.208;-1.518;2023-02-26T00:23:30;39.17;;;36.20;;
31808;SDS011;18379;48.208;-1.518;2023-02-26T00:28:31;38.23;;;35.23;;
31808;SDS011;18379;48.208;-1.518;2023-02-26T00:33:32;37.90;;;35.17;;
31808;SDS011;18379;48.208;-1.518;2023-02-26T00:38:34;37.60;;;35.20;;
31808;SDS011;18379;48.208;-1.518;2023-02-26T00:43:37;38.30;;;35.40;;
31808;SDS011;18379;48.208;-1.518;2023-02-26T00:54:21;40.73;;;37.67;;
31808;SDS011;18379;48.208;-1.518;2023-02-26T00:59:24;41.73;;;38.20;;
31808;SDS011;18379;48.208;-1.518;2023-02-26T01:04:25;39.57;;;36.43;;
31808;SDS011;18379;48.208;-1.518;2023-02-26T01:14:32;38.07;;;34.93;;
31808;SDS011;18379;48.208;-1.518;2023-02-26T01:24:40;40.67;;;37.13;;
31808;SDS011;18379;48.208;-1.518;2023-02-26T01:29:42;39.83;;;36.83;;
31808;SDS011;18379;48.208;-1.518;2023-02-26T01:45:34;37.20;;;34.67;;
31808;SDS011;18379;48.208;-1.518;2023-02-26T01:50:38;37.73;;;35.00;;
31808;SDS011;18379;48.208;-1.518;2023-02-26T01:55:39;38.50;;;35.67;;
31808;SDS011;18379;48.208;-1.518;2023-02-26T02:00:42;55.83;;;50.77;;
31808;SDS011;18379;48.208;-1.518;2023-02-26T02:05:45;54.53;;;49.77;;
31808;SDS011;18379;48.208;-1.518;2023-02-26T02:10:53;36.90;;;33.93;;
31808;SDS011;18379;48.208;-1.518;2023-02-26T02:26:55;53.47;;;48.50;;
31808;SDS011;18379;48.208;-1.518;2023-02-26T02:32:30;47.97;;;43.43;;
31808;SDS011;18379;48.208;-1.518;2023-02-26T02:37:47;60.13;;;53.87;;
31808;SDS011;18379;48.208;-1.518;2023-02-26T02:43:05;54.17;;;49.40;;
31808;SDS011;18379;48.208;-1.518;2023-02-26T02:48:22;40.83;;;37.27;;
31808;SDS011;18379;48.208;-1.518;2023-02-26T02:58:50;35.83;;;33.67;;
31808;SDS011;18379;48.208;-1.518;2023-02-26T03:04:07;37.63;;;34.70;;
31808;SDS011;18379;48.208;-1.518;2023-02-26T03:09:10;39.13;;;35.93;;
31808;SDS011;18379;48.208;-1.518;2023-02-26T03:14:12;38.03;;;35.00;;
31808;SDS011;18379;48.208;-1.518;2023-02-26T03:19:17;38.10;;;35.10;;
31808;SDS011;18379;48.208;-1.518;2023-02-26T03:35:28;33.93;;;31.13;;
31808;SDS011;18379;48.208;-1.518;2023-02-26T03:40:58;37.10;;;34.17;;
31808;SDS011;18379;48.208;-1.518;2023-02-26T03:46:19;36.90;;;34.10;;
31808;SDS011;18379;48.208;-1.518;2023-02-26T03:51:28;34.97;;;31.93;;
31808;SDS011;18379;48.208;-1.518;2023-02-26T03:56:32;38.07;;;34.97;;
31808;SDS011;18379;48.208;-1.518;2023-02-26T04:02:25;53.57;;;48.67;;
31808;SDS011;18379;48.208;-1.518;2023-02-26T04:06:59;35.90;;;33.17;;
31808;SDS011;18379;48.208;-1.518;2023-02-26T04:12:01;43.30;;;39.33;;
31808;SDS011;18379;48.208;-1.518;2023-02-26T04:17:03;48.80;;;44.17;;
31808;SDS011;18379;48.208;-1.518;2023-02-26T04:22:04;51.57;;;46.53;;
31808;SDS011;18379;48.208;-1.518;2023-02-26T04:27:05;55.57;;;50.17;;
31808;SDS011;18379;48.208;-1.518;2023-02-26T04:32:06;52.00;;;47.37;;
31808;SDS011;18379;48.208;-1.518;2023-02-26T04:37:07;53.40;;;48.07;;
31808;SDS011;18379;48.208;-1.518;2023-02-26T04:42:07;53.87;;;48.23;;
31808;SDS011;18379;48.208;-1.518;2023-02-26T04:47:08;54.97;;;49.47;;
31808;SDS011;18379;48.208;-1.518;2023-02-26T04:52:09;52.37;;;47.03;;
31808;SDS011;18379;48.208;-1.518;2023-02-26T04:57:10;51.70;;;46.50;;
31808;SDS011;18379;48.208;-1.518;2023-02-26T05:02:11;52.13;;;46.87;;
31808;SDS011;18379;48.208;-1.518;2023-02-26T05:07:11;50.80;;;45.80;;
31808;SDS011;18379;48.208;-1.518;2023-02-26T05:12:12;53.30;;;47.97;;
31808;SDS011;18379;48.208;-1.518;2023-02-26T05:17:13;54.57;;;49.40;;
31808;SDS011;18379;48.208;-1.518;2023-02-26T05:22:14;54.17;;;47.63;;
31808;SDS011;18379;48.208;-1.518;2023-02-26T05:27:15;51.97;;;47.03;;
31808;SDS011;18379;48.208;-1.518;2023-02-26T05:32:16;54.77;;;49.20;;
31808;SDS011;18379;48.208;-1.518;2023-02-26T05:37:16;49.33;;;44.57;;
31808;SDS011;18379;48.208;-1.518;2023-02-26T05:42:17;45.87;;;41.07;;
31808;SDS011;18379;48.208;-1.518;2023-02-26T05:47:18;34.60;;;31.80;;
31808;SDS011;18379;48.208;-1.518;2023-02-26T05:52:19;32.23;;;30.33;;
31808;SDS011;18379;48.208;-1.518;2023-02-26T05:57:19;31.73;;;29.93;;
31808;SDS011;18379;48.208;-1.518;2023-02-26T06:02:21;32.93;;;30.60;;
31808;SDS011;18379;48.208;-1.518;2023-02-26T06:07:21;31.70;;;29.73;;
31808;SDS011;18379;48.208;-1.518;2023-02-26T06:12:23;32.17;;;29.83;;
31808;SDS011;18379;48.208;-1.518;2023-02-26T06:17:24;32.03;;;29.83;;
31808;SDS011;18379;48.208;-1.518;2023-02-26T06:22:25;32.20;;;29.80;;
31808;SDS011;18379;48.208;-1.518;2023-02-26T06:27:26;31.53;;;29.20;;
31808;SDS011;18379;48.208;-1.518;2023-02-26T06:32:26;31.83;;;29.73;;
31808;SDS011;18379;48.208;-1.518;2023-02-26T06:37:27;32.50;;;29.90;;
31808;SDS011;18379;48.208;-1.518;2023-02-26T06:42:28;31.57;;;29.53;;
31808;SDS011;18379;48.208;-1.518;2023-02-26T06:47:29;32.10;;;29.80;;
31808;SDS011;18379;48.208;-1.518;2023-02-26T06:52:31;33.87;;;31.27;;
31808;SDS011;18379;48.208;-1.518;2023-02-26T06:57:31;40.70;;;36.97;;
31808;SDS011;18379;48.208;-1.518;2023-02-26T07:02:32;44.53;;;40.47;;
31808;SDS011;18379;48.208;-1.518;2023-02-26T07:07:33;48.00;;;43.40;;
31808;SDS011;18379;48.208;-1.518;2023-02-26T07:12:34;47.53;;;43.17;;
31808;SDS011;18379;48.208;-1.518;2023-02-26T07:17:35;51.00;;;46.30;;
31808;SDS011;18379;48.208;-1.518;2023-02-26T07:22:36;54.50;;;48.80;;
31808;SDS011;18379;48.208;-1.518;2023-02-26T07:27:37;52.33;;;47.13;;
31808;SDS011;18379;48.208;-1.518;2023-02-26T07:32:38;52.47;;;47.17;;
31808;SDS011;18379;48.208;-1.518;2023-02-26T07:37:39;49.43;;;44.97;;
31808;SDS011;18379;48.208;-1.518;2023-02-26T07:42:40;56.47;;;50.77;;
31808;SDS011;18379;48.208;-1.518;2023-02-26T07:47:40;35.33;;;32.43;;
31808;SDS011;18379;48.208;-1.518;2023-02-26T07:52:41;35.03;;;32.30;;
31808;SDS011;18379;48.208;-1.518;2023-02-26T07:57:42;33.87;;;31.70;;
31808;SDS011;18379;48.208;-1.518;2023-02-26T08:02:43;44.60;;;40.83;;
31808;SDS011;18379;48.208;-1.518;2023-02-26T08:07:44;37.30;;;34.40;;
31808;SDS011;18379;48.208;-1.518;2023-02-26T08:12:45;37.77;;;34.70;;
31808;SDS011;18379;48.208;-1.518;2023-02-26T08:17:47;36.40;;;33.90;;
31808;SDS011;18379;48.208;-1.518;2023-02-26T08:22:49;35.67;;;33.07;;
31808;SDS011;18379;48.208;-1.518;2023-02-26T08:27:50;33.80;;;31.43;;
31808;SDS011;18379;48.208;-1.518;2023-02-26T08:32:51;32.83;;;30.87;;
31808;SDS011;18379;48.208;-1.518;2023-02-26T08:37:52;33.17;;;30.93;;
31808;SDS011;18379;48.208;-1.518;2023-02-26T08:42:53;34.00;;;31.93;;
31808;SDS011;18379;48.208;-1.518;2023-02-26T08:47:54;35.50;;;33.30;;
31808;SDS011;18379;48.208;-1.518;2023-02-26T08:52:57;34.43;;;32.13;;
31808;SDS011;18379;48.208;-1.518;2023-02-26T08:57:58;33.67;;;31.77;;
31808;SDS011;18379;48.208;-1.518;2023-02-26T09:02:59;34.83;;;32.60;;
31808;SDS011;18379;48.208;-1.518;2023-02-26T09:08:00;35.60;;;33.30;;
31808;SDS011;18379;48.208;-1.518;2023-02-26T09:13:00;36.43;;;34.03;;
31808;SDS011;18379;48.208;-1.518;2023-02-26T09:18:04;39.30;;;36.80;;
31808;SDS011;18379;48.208;-1.518;2023-02-26T09:23:05;40.93;;;37.73;;
31808;SDS011;18379;48.208;-1.518;2023-02-26T09:28:06;40.83;;;38.17;;
31808;SDS011;18379;48.208;-1.518;2023-02-26T09:33:07;44.23;;;40.70;;
31808;SDS011;18379;48.208;-1.518;2023-02-26T09:38:08;37.23;;;35.03;;
31808;SDS011;18379;48.208;-1.518;2023-02-26T09:43:14;42.03;;;38.90;;
31808;SDS011;18379;48.208;-1.518;2023-02-26T09:48:30;38.13;;;35.90;;
31808;SDS011;18379;48.208;-1.518;2023-02-26T09:53:36;38.97;;;36.67;;
31808;SDS011;18379;48.208;-1.518;2023-02-26T09:58:40;39.00;;;36.50;;
31808;SDS011;18379;48.208;-1.518;2023-02-26T10:14:39;40.07;;;37.63;;
31808;SDS011;18379;48.208;-1.518;2023-02-26T10:20:05;40.37;;;37.87;;
31808;SDS011;18379;48.208;-1.518;2023-02-26T10:25:14;44.10;;;41.20;;
31808;SDS011;18379;48.208;-1.518;2023-02-26T10:30:24;43.30;;;40.70;;
31808;SDS011;18379;48.208;-1.518;2023-02-26T10:35:57;41.67;;;39.17;;
31808;SDS011;18379;48.208;-1.518;2023-02-26T10:41:22;44.33;;;41.60;;
31808;SDS011;18379;48.208;-1.518;2023-02-26T10:51:39;45.37;;;42.50;;
31808;SDS011;18379;48.208;-1.518;2023-02-26T10:56:40;45.73;;;42.67;;
31808;SDS011;18379;48.208;-1.518;2023-02-26T11:01:41;46.07;;;43.10;;
31808;SDS011;18379;48.208;-1.518;2023-02-26T11:07:01;44.67;;;42.03;;
31808;SDS011;18379;48.208;-1.518;2023-02-26T11:17:11;46.47;;;43.47;;
31808;SDS011;18379;48.208;-1.518;2023-02-26T11:22:18;46.63;;;43.57;;
31808;SDS011;18379;48.208;-1.518;2023-02-26T11:27:23;52.20;;;48.50;;
31808;SDS011;18379;48.208;-1.518;2023-02-26T11:32:33;44.77;;;42.13;;
31808;SDS011;18379;48.208;-1.518;2023-02-26T11:37:37;46.13;;;43.10;;
31808;SDS011;18379;48.208;-1.518;2023-02-26T11:42:42;47.57;;;44.23;;
31808;SDS011;18379;48.208;-1.518;2023-02-26T11:47:57;43.00;;;40.40;;
31808;SDS011;18379;48.208;-1.518;2023-02-26T11:53:05;44.70;;;41.30;;
31808;SDS011;18379;48.208;-1.518;2023-02-26T11:58:19;50.30;;;46.63;;
31808;SDS011;18379;48.208;-1.518;2023-02-26T12:03:23;43.70;;;41.03;;
31808;SDS011;18379;48.208;-1.518;2023-02-26T12:13:57;50.57;;;46.63;;
31808;SDS011;18379;48.208;-1.518;2023-02-26T12:19:23;48.80;;;45.73;;
31808;SDS011;18379;48.208;-1.518;2023-02-26T12:52:23;57.73;;;53.37;;
31808;SDS011;18379;48.208;-1.518;2023-02-26T13:03:34;50.07;;;46.57;;
31808;SDS011;18379;48.208;-1.518;2023-02-26T13:20:02;46.90;;;44.10;;
31808;SDS011;18379;48.208;-1.518;2023-02-26T13:25:18;50.63;;;47.30;;
31808;SDS011;18379;48.208;-1.518;2023-02-26T13:30:33;51.03;;;47.30;;
31808;SDS011;18379;48.208;-1.518;2023-02-26T13:35:44;50.63;;;47.00;;
31808;SDS011;18379;48.208;-1.518;2023-02-26T14:01:55;50.73;;;47.57;;
31808;SDS011;18379;48.208;-1.518;2023-02-26T14:07:10;49.53;;;46.63;;
31808;SDS011;18379;48.208;-1.518;2023-02-26T14:33:38;52.10;;;48.90;;
31808;SDS011;18379;48.208;-1.518;2023-02-26T14:38:43;54.50;;;50.63;;
31808;SDS011;18379;48.208;-1.518;2023-02-26T14:43:53;52.37;;;48.90;;
31808;SDS011;18379;48.208;-1.518;2023-02-26T14:49:01;50.60;;;47.60;;
31808;SDS011;18379;48.208;-1.518;2023-02-26T15:10:12;50.63;;;47.57;;
31808;SDS011;18379;48.208;-1.518;2023-02-26T15:20:45;50.27;;;47.27;;
31808;SDS011;18379;48.208;-1.518;2023-02-26T15:25:56;48.60;;;45.90;;
31808;SDS011;18379;48.208;-1.518;2023-02-26T15:31:20;54.90;;;51.07;;
31808;SDS011;18379;48.208;-1.518;2023-02-26T15:36:55;55.60;;;51.87;;
31808;SDS011;18379;48.208;-1.518;2023-02-26T15:42:20;54.93;;;51.17;;
31808;SDS011;18379;48.208;-1.518;2023-02-26T15:47:53;51.40;;;48.17;;
31808;SDS011;18379;48.208;-1.518;2023-02-26T15:58:31;51.80;;;48.50;;
31808;SDS011;18379;48.208;-1.518;2023-02-26T16:03:55;56.13;;;52.17;;
31808;SDS011;18379;48.208;-1.518;2023-02-26T16:09:43;53.77;;;50.17;;
31808;SDS011;18379;48.208;-1.518;2023-02-26T16:14:52;57.83;;;53.93;;
31808;SDS011;18379;48.208;-1.518;2023-02-26T16:20:15;50.73;;;47.57;;
31808;SDS011;18379;48.208;-1.518;2023-02-26T16:25:59;52.23;;;48.40;;
31808;SDS011;18379;48.208;-1.518;2023-02-26T16:31:17;62.97;;;56.77;;
31808;SDS011;18379;48.208;-1.518;2023-02-26T16:36:43;49.63;;;46.63;;
31808;SDS011;18379;48.208;-1.518;2023-02-26T16:48:13;52.57;;;48.97;;
31808;SDS011;18379;48.208;-1.518;2023-02-26T16:53:21;50.73;;;47.43;;
31808;SDS011;18379;48.208;-1.518;2023-02-26T16:58:29;47.00;;;44.20;;
31808;SDS011;18379;48.208;-1.518;2023-02-26T17:03:31;46.03;;;43.40;;
31808;SDS011;18379;48.208;-1.518;2023-02-26T17:08:40;45.57;;;42.80;;
31808;SDS011;18379;48.208;-1.518;2023-02-26T17:13:46;46.33;;;43.47;;
31808;SDS011;18379;48.208;-1.518;2023-02-26T17:19:03;43.87;;;41.17;;
31808;SDS011;18379;48.208;-1.518;2023-02-26T17:24:04;43.03;;;40.37;;
31808;SDS011;18379;48.208;-1.518;2023-02-26T17:29:05;48.30;;;44.07;;
31808;SDS011;18379;48.208;-1.518;2023-02-26T17:34:09;45.37;;;41.93;;
31808;SDS011;18379;48.208;-1.518;2023-02-26T17:39:12;60.23;;;50.27;;
31808;SDS011;18379;48.208;-1.518;2023-02-26T17:44:13;50.57;;;45.80;;
31808;SDS011;18379;48.208;-1.518;2023-02-26T17:49:16;49.47;;;45.60;;
31808;SDS011;18379;48.208;-1.518;2023-02-26T17:54:16;47.77;;;44.23;;
31808;SDS011;18379;48.208;-1.518;2023-02-26T17:59:17;44.60;;;41.60;;
31808;SDS011;18379;48.208;-1.518;2023-02-26T18:04:18;53.47;;;49.23;;
31808;SDS011;18379;48.208;-1.518;2023-02-26T18:09:20;43.13;;;40.00;;
31808;SDS011;18379;48.208;-1.518;2023-02-26T18:14:21;51.93;;;47.77;;
31808;SDS011;18379;48.208;-1.518;2023-02-26T18:19:24;38.80;;;36.70;;
31808;SDS011;18379;48.208;-1.518;2023-02-26T18:24:25;39.53;;;37.13;;
31808;SDS011;18379;48.208;-1.518;2023-02-26T18:29:27;39.40;;;36.60;;
31808;SDS011;18379;48.208;-1.518;2023-02-26T18:34:28;38.40;;;36.10;;
31808;SDS011;18379;48.208;-1.518;2023-02-26T18:39:28;43.77;;;40.97;;
31808;SDS011;18379;48.208;-1.518;2023-02-26T18:44:33;38.43;;;36.17;;
31808;SDS011;18379;48.208;-1.518;2023-02-26T18:49:34;38.77;;;35.80;;
31808;SDS011;18379;48.208;-1.518;2023-02-26T18:54:34;39.83;;;37.07;;
31808;SDS011;18379;48.208;-1.518;2023-02-26T18:59:36;39.93;;;37.10;;
31808;SDS011;18379;48.208;-1.518;2023-02-26T19:04:37;41.47;;;38.47;;
31808;SDS011;18379;48.208;-1.518;2023-02-26T19:09:38;45.60;;;41.50;;
31808;SDS011;18379;48.208;-1.518;2023-02-26T19:14:46;42.10;;;39.30;;
31808;SDS011;18379;48.208;-1.518;2023-02-26T19:20:09;37.63;;;35.27;;
31808;SDS011;18379;48.208;-1.518;2023-02-26T19:25:18;85.00;;;38.73;;
31808;SDS011;18379;48.208;-1.518;2023-02-26T19:30:24;41.20;;;38.33;;
31808;SDS011;18379;48.208;-1.518;2023-02-26T19:35:25;37.90;;;35.47;;
31808;SDS011;18379;48.208;-1.518;2023-02-26T19:40:26;40.53;;;37.57;;
31808;SDS011;18379;48.208;-1.518;2023-02-26T19:45:27;36.97;;;34.70;;
31808;SDS011;18379;48.208;-1.518;2023-02-26T19:50:28;38.60;;;35.97;;
31808;SDS011;18379;48.208;-1.518;2023-02-26T19:55:29;39.13;;;36.37;;
31808;SDS011;18379;48.208;-1.518;2023-02-26T20:00:30;37.03;;;34.73;;
31808;SDS011;18379;48.208;-1.518;2023-02-26T20:05:31;36.93;;;34.80;;
31808;SDS011;18379;48.208;-1.518;2023-02-26T20:10:32;36.83;;;34.70;;
31808;SDS011;18379;48.208;-1.518;2023-02-26T20:15:32;36.90;;;34.70;;
31808;SDS011;18379;48.208;-1.518;2023-02-26T20:20:33;36.40;;;34.40;;
31808;SDS011;18379;48.208;-1.518;2023-02-26T20:25:34;36.37;;;34.27;;
31808;SDS011;18379;48.208;-1.518;2023-02-26T20:30:36;37.40;;;35.13;;
31808;SDS011;18379;48.208;-1.518;2023-02-26T20:35:42;38.47;;;35.83;;
31808;SDS011;18379;48.208;-1.518;2023-02-26T20:40:45;44.77;;;41.40;;
31808;SDS011;18379;48.208;-1.518;2023-02-26T20:45:47;37.30;;;35.00;;
31808;SDS011;18379;48.208;-1.518;2023-02-26T20:50:48;38.23;;;35.47;;
31808;SDS011;18379;48.208;-1.518;2023-02-26T20:55:53;37.13;;;34.87;;
31808;SDS011;18379;48.208;-1.518;2023-02-26T21:00:55;36.77;;;34.53;;
31808;SDS011;18379;48.208;-1.518;2023-02-26T21:05:56;34.63;;;32.83;;
31808;SDS011;18379;48.208;-1.518;2023-02-26T21:10:57;35.67;;;33.47;;
31808;SDS011;18379;48.208;-1.518;2023-02-26T21:16:00;35.17;;;33.13;;
31808;SDS011;18379;48.208;-1.518;2023-02-26T21:21:02;33.90;;;32.03;;
31808;SDS011;18379;48.208;-1.518;2023-02-26T21:26:04;33.47;;;31.67;;
31808;SDS011;18379;48.208;-1.518;2023-02-26T21:31:06;33.87;;;31.97;;
31808;SDS011;18379;48.208;-1.518;2023-02-26T21:36:09;34.53;;;32.67;;
31808;SDS011;18379;48.208;-1.518;2023-02-26T21:41:14;36.77;;;34.50;;
31808;SDS011;18379;48.208;-1.518;2023-02-26T21:46:15;37.43;;;35.03;;
31808;SDS011;18379;48.208;-1.518;2023-02-26T21:51:16;37.50;;;34.87;;
31808;SDS011;18379;48.208;-1.518;2023-02-26T21:56:20;37.80;;;35.20;;
31808;SDS011;18379;48.208;-1.518;2023-02-26T22:01:28;38.33;;;35.90;;
31808;SDS011;18379;48.208;-1.518;2023-02-26T22:06:30;32.67;;;30.90;;
31808;SDS011;18379;48.208;-1.518;2023-02-26T22:11:32;34.20;;;32.20;;
31808;SDS011;18379;48.208;-1.518;2023-02-26T22:16:34;34.20;;;32.30;;
31808;SDS011;18379;48.208;-1.518;2023-02-26T22:21:35;32.83;;;31.13;;
31808;SDS011;18379;48.208;-1.518;2023-02-26T22:26:36;33.60;;;31.80;;
31808;SDS011;18379;48.208;-1.518;2023-02-26T22:31:38;35.63;;;33.33;;
31808;SDS011;18379;48.208;-1.518;2023-02-26T22:36:39;35.50;;;33.17;;
31808;SDS011;18379;48.208;-1.518;2023-02-26T22:41:40;34.97;;;32.67;;
31808;SDS011;18379;48.208;-1.518;2023-02-26T22:46:41;36.50;;;34.13;;
31808;SDS011;18379;48.208;-1.518;2023-02-26T22:51:42;36.97;;;33.37;;
31808;SDS011;18379;48.208;-1.518;2023-02-26T22:56:42;36.20;;;33.93;;
31808;SDS011;18379;48.208;-1.518;2023-02-26T23:01:43;46.50;;;42.87;;
31808;SDS011;18379;48.208;-1.518;2023-02-26T23:06:44;35.03;;;32.70;;
31808;SDS011;18379;48.208;-1.518;2023-02-26T23:11:45;35.37;;;32.60;;
31808;SDS011;18379;48.208;-1.518;2023-02-26T23:16:46;35.27;;;32.67;;
31808;SDS011;18379;48.208;-1.518;2023-02-26T23:21:47;34.80;;;32.37;;
31808;SDS011;18379;48.208;-1.518;2023-02-26T23:26:47;34.67;;;32.27;;
31808;SDS011;18379;48.208;-1.518;2023-02-26T23:31:48;34.97;;;32.60;;
31808;SDS011;18379;48.208;-1.518;2023-02-26T23:36:50;34.70;;;32.07;;
31808;SDS011;18379;48.208;-1.518;2023-02-26T23:41:50;34.80;;;32.50;;
31808;SDS011;18379;48.208;-1.518;2023-02-26T23:46:51;35.63;;;33.13;;
31808;SDS011;18379;48.208;-1.518;2023-02-26T23:51:52;39.33;;;35.97;;
31808;SDS011;18379;48.208;-1.518;2023-02-26T23:56:53;35.40;;;33.00;;
